Time;durP1;ratioP1;P1;durP2;ratioP2;P2;SDS_P1;SDS_P2;PMS_P1;PMS_P2;Temp;Humidity;BMP_temperature;BMP_pressure;BME280_temperature;BME280_humidity;BME280_pressure;Samples;Min_cycle;Max_cycle;Signal;HPM_P1;HPM_P2
2024/01/06 00:00:08;;;;;;;37.27;18.07;;;;;;;;;;760872;182;916930;-59
2024/01/06 00:02:34;;;;;;;35.90;20.27;;;;;;;;;;756064;182;916721;-63
2024/01/06 00:05:00;;;;;;;28.70;18.33;;;;;;;;;;759638;181;915879;-62
2024/01/06 00:07:26;;;;;;;27.95;19.60;;;;;;;;;;755640;181;920670;-63
2024/01/06 00:09:52;;;;;;;29.53;18.23;;;;;;;;;;758375;184;816356;-59
2024/01/06 00:12:18;;;;;;;30.60;18.43;;;;;;;;;;756330;183;918701;-58
2024/01/06 00:14:45;;;;;;;32.97;18.00;;;;;;;;;;755712;184;816695;-63
2024/01/06 00:17:09;;;;;;;27.50;17.33;;;;;;;;;;766392;182;918270;-62
2024/01/06 00:19:35;;;;;;;31.07;17.03;;;;;;;;;;756794;182;917708;-61
2024/01/06 00:22:01;;;;;;;28.37;17.57;;;;;;;;;;753642;183;1003800;-58
2024/01/06 00:24:27;;;;;;;30.20;18.02;;;;;;;;;;761904;181;919214;-60
2024/01/06 00:26:52;;;;;;;33.50;18.50;;;;;;;;;;756766;181;920769;-63
2024/01/06 00:29:18;;;;;;;25.70;15.80;;;;;;;;;;757628;182;918623;-58
2024/01/06 00:31:44;;;;;;;22.67;14.03;;;;;;;;;;754980;183;919008;-62
2024/01/06 00:34:10;;;;;;;28.13;16.00;;;;;;;;;;755754;181;912544;-63
2024/01/06 00:36:36;;;;;;;29.33;14.47;;;;;;;;;;758893;178;976779;-63
2024/01/06 00:39:03;;;;;;;28.13;15.43;;;;;;;;;;755656;182;892985;-59
2024/01/06 00:41:28;;;;;;;24.03;14.20;;;;;;;;;;761937;181;816464;-62
2024/01/06 00:43:53;;;;;;;26.23;15.03;;;;;;;;;;755713;181;914963;-59
2024/01/06 00:46:19;;;;;;;23.47;15.60;;;;;;;;;;754773;181;919701;-63
2024/01/06 00:48:45;;;;;;;23.40;14.50;;;;;;;;;;757368;183;815165;-63
2024/01/06 00:51:11;;;;;;;27.30;15.70;;;;;;;;;;759586;182;915931;-59
2024/01/06 00:53:37;;;;;;;20.45;13.75;;;;;;;;;;754715;181;918864;-63
2024/01/06 00:56:03;;;;;;;27.70;15.67;;;;;;;;;;758969;181;918075;-59
2024/01/06 00:58:29;;;;;;;24.73;14.83;;;;;;;;;;757609;182;851747;-62
2024/01/06 01:00:55;;;;;;;24.63;15.07;;;;;;;;;;756270;181;936049;-63
2024/01/06 01:03:20;;;;;;;28.53;14.97;;;;;;;;;;751839;184;872437;-63
2024/01/06 01:05:46;;;;;;;23.97;14.70;;;;;;;;;;759706;178;918714;-63
2024/01/06 01:08:12;;;;;;;26.20;13.77;;;;;;;;;;754139;180;918796;-63
2024/01/06 01:10:38;;;;;;;23.90;14.60;;;;;;;;;;754428;182;914819;-63
2024/01/06 01:13:04;;;;;;;22.63;13.83;;;;;;;;;;760566;181;908952;-59
2024/01/06 01:15:30;;;;;;;24.90;14.53;;;;;;;;;;755588;183;923131;-63
2024/01/06 01:17:55;;;;;;;26.20;15.70;;;;;;;;;;763593;180;918076;-63
2024/01/06 01:20:21;;;;;;;25.63;15.17;;;;;;;;;;763826;182;918930;-62
2024/01/06 01:22:47;;;;;;;26.00;14.07;;;;;;;;;;763148;180;919661;-63
2024/01/06 01:25:13;;;;;;;23.00;13.30;;;;;;;;;;753284;183;918662;-63
2024/01/06 01:27:39;;;;;;;23.05;13.65;;;;;;;;;;758906;182;923502;-63
2024/01/06 01:30:06;;;;;;;27.97;15.40;;;;;;;;;;760360;181;818892;-59
2024/01/06 01:32:31;;;;;;;27.77;15.50;;;;;;;;;;758207;182;919764;-60
2024/01/06 01:34:57;;;;;;;27.00;16.67;;;;;;;;;;752827;183;918249;-59
2024/01/06 01:37:23;;;;;;;28.40;14.90;;;;;;;;;;764382;180;816585;-63
2024/01/06 01:39:49;;;;;;;21.60;13.77;;;;;;;;;;757285;182;717437;-60
2024/01/06 01:42:15;;;;;;;25.20;15.60;;;;;;;;;;755021;183;917163;-59
2024/01/06 01:44:40;;;;;;;20.80;13.23;;;;;;;;;;757693;182;918973;-60
2024/01/06 01:47:06;;;;;;;33.23;14.77;;;;;;;;;;765444;181;919425;-59
2024/01/06 01:49:32;;;;;;;27.63;15.33;;;;;;;;;;754152;182;918130;-59
2024/01/06 01:51:58;;;;;;;26.53;14.17;;;;;;;;;;759512;183;816295;-63
2024/01/06 01:54:24;;;;;;;22.90;13.53;;;;;;;;;;749310;185;919714;-59
2024/01/06 01:56:50;;;;;;;21.10;13.40;;;;;;;;;;750566;183;922562;-64
2024/01/06 01:59:16;;;;;;;21.97;13.50;;;;;;;;;;756327;181;820474;-63
2024/01/06 02:01:42;;;;;;;23.23;14.13;;;;;;;;;;760938;181;820665;-64
2024/01/06 02:04:07;;;;;;;20.55;12.80;;;;;;;;;;753158;183;910268;-59
2024/01/06 02:06:33;;;;;;;20.27;13.80;;;;;;;;;;753417;184;915661;-63
2024/01/06 02:08:59;;;;;;;21.83;13.10;;;;;;;;;;760465;181;816540;-59
2024/01/06 02:11:25;;;;;;;21.47;13.57;;;;;;;;;;754135;181;917925;-59
2024/01/06 02:13:51;;;;;;;20.83;13.73;;;;;;;;;;758485;182;870823;-59
2024/01/06 02:16:16;;;;;;;23.37;11.83;;;;;;;;;;762783;181;821978;-64
2024/01/06 02:18:42;;;;;;;21.47;13.67;;;;;;;;;;749184;186;918669;-59
2024/01/06 02:21:08;;;;;;;21.13;12.70;;;;;;;;;;756232;181;920738;-63
2024/01/06 02:23:34;;;;;;;24.70;14.40;;;;;;;;;;754866;182;918637;-59
2024/01/06 02:26:00;;;;;;;25.87;13.93;;;;;;;;;;751864;182;919038;-63
2024/01/06 02:28:26;;;;;;;21.40;14.20;;;;;;;;;;760648;182;919203;-63
2024/01/06 02:30:51;;;;;;;20.88;13.32;;;;;;;;;;754435;180;916120;-63
2024/01/06 02:33:19;;;;;;;20.13;13.60;;;;;;;;;;758877;182;834584;-60
2024/01/06 02:35:43;;;;;;;25.47;15.47;;;;;;;;;;755344;179;916830;-65
2024/01/06 02:38:09;;;;;;;21.83;15.07;;;;;;;;;;754100;182;928172;-64
2024/01/06 02:40:35;;;;;;;20.80;15.57;;;;;;;;;;758406;184;919191;-65
2024/01/06 02:43:01;;;;;;;27.75;16.27;;;;;;;;;;764869;181;871753;-64
2024/01/06 02:45:27;;;;;;;28.13;16.23;;;;;;;;;;758396;182;816691;-65
2024/01/06 02:47:52;;;;;;;31.23;16.83;;;;;;;;;;763227;181;919022;-60
2024/01/06 02:50:18;;;;;;;22.57;14.87;;;;;;;;;;754588;184;918640;-65
2024/01/06 02:52:45;;;;;;;22.30;14.30;;;;;;;;;;754406;181;942789;-59
2024/01/06 02:55:10;;;;;;;23.47;12.97;;;;;;;;;;740176;186;924736;-63
2024/01/06 02:57:36;;;;;;;22.13;12.77;;;;;;;;;;762301;181;889615;-64
2024/01/06 03:00:02;;;;;;;20.05;12.37;;;;;;;;;;764399;181;911065;-65
2024/01/06 03:02:27;;;;;;;21.80;12.27;;;;;;;;;;757374;182;940993;-64
2024/01/06 03:04:54;;;;;;;26.20;14.80;;;;;;;;;;760296;182;920063;-62
2024/01/06 03:07:19;;;;;;;28.27;16.20;;;;;;;;;;751703;183;919131;-59
2024/01/06 03:09:45;;;;;;;27.40;14.90;;;;;;;;;;758403;181;1021675;-63
2024/01/06 03:12:11;;;;;;;27.57;15.40;;;;;;;;;;761349;182;911354;-63
2024/01/06 03:14:37;;;;;;;27.60;14.00;;;;;;;;;;756621;181;921921;-59
2024/01/06 03:17:03;;;;;;;28.65;16.58;;;;;;;;;;744036;182;1008934;-59
2024/01/06 03:19:28;;;;;;;35.23;16.93;;;;;;;;;;748073;186;922678;-63
2024/01/06 03:21:54;;;;;;;28.97;19.00;;;;;;;;;;747531;184;919620;-60
2024/01/06 03:24:21;;;;;;;27.13;16.70;;;;;;;;;;753776;184;914101;-62
2024/01/06 03:26:47;;;;;;;30.40;16.87;;;;;;;;;;756652;182;914606;-63
2024/01/06 03:29:13;;;;;;;34.70;17.00;;;;;;;;;;759341;184;910469;-61
2024/01/06 03:31:38;;;;;;;28.20;17.57;;;;;;;;;;753483;181;918642;-60
2024/01/06 03:34:04;;;;;;;30.40;17.40;;;;;;;;;;762708;181;926493;-62
2024/01/06 03:36:30;;;;;;;29.43;17.07;;;;;;;;;;757431;183;815701;-63
2024/01/06 03:38:56;;;;;;;27.27;17.30;;;;;;;;;;754068;182;917873;-59
2024/01/06 03:41:22;;;;;;;24.17;15.60;;;;;;;;;;755618;184;918547;-61
2024/01/06 03:43:48;;;;;;;35.33;19.50;;;;;;;;;;762209;181;774922;-62
2024/01/06 03:46:13;;;;;;;34.60;19.63;;;;;;;;;;757303;181;952766;-60
2024/01/06 03:48:39;;;;;;;26.90;16.30;;;;;;;;;;757201;181;919010;-60
2024/01/06 03:51:05;;;;;;;35.40;19.50;;;;;;;;;;758459;182;918319;-62
2024/01/06 03:53:31;;;;;;;31.93;16.87;;;;;;;;;;758870;184;917327;-61
2024/01/06 03:55:57;;;;;;;32.67;17.47;;;;;;;;;;754583;181;918535;-60
2024/01/06 03:58:23;;;;;;;31.77;18.40;;;;;;;;;;754719;181;917630;-60
2024/01/06 04:00:49;;;;;;;29.30;18.30;;;;;;;;;;759555;185;916335;-61
2024/01/06 04:03:14;;;;;;;35.67;20.00;;;;;;;;;;763469;181;911994;-61
2024/01/06 04:05:40;;;;;;;35.65;18.77;;;;;;;;;;759100;181;921757;-62
2024/01/06 04:08:06;;;;;;;35.97;20.17;;;;;;;;;;757776;184;915217;-61
2024/01/06 04:10:32;;;;;;;35.77;22.10;;;;;;;;;;760695;180;916287;-61
2024/01/06 04:12:58;;;;;;;39.13;22.93;;;;;;;;;;759289;180;918737;-62
2024/01/06 04:15:24;;;;;;;34.83;20.65;;;;;;;;;;755228;182;914398;-62
2024/01/06 04:17:50;;;;;;;39.50;21.27;;;;;;;;;;765135;175;843361;-62
2024/01/06 04:20:15;;;;;;;36.17;22.60;;;;;;;;;;755257;183;926594;-61
2024/01/06 04:22:41;;;;;;;44.43;24.70;;;;;;;;;;756753;181;918859;-63
2024/01/06 04:25:07;;;;;;;49.23;23.60;;;;;;;;;;758839;183;918999;-62
2024/01/06 04:27:34;;;;;;;44.40;22.83;;;;;;;;;;756854;181;922048;-62
2024/01/06 04:29:59;;;;;;;40.40;22.80;;;;;;;;;;755275;183;929875;-62
2024/01/06 04:32:25;;;;;;;41.30;24.67;;;;;;;;;;756305;184;919714;-64
2024/01/06 04:34:51;;;;;;;43.57;24.87;;;;;;;;;;756641;182;918264;-62
2024/01/06 04:37:17;;;;;;;40.27;23.37;;;;;;;;;;752832;182;918951;-63
2024/01/06 04:39:42;;;;;;;44.60;23.67;;;;;;;;;;757121;184;819261;-64
2024/01/06 04:42:08;;;;;;;47.73;23.97;;;;;;;;;;765077;181;828935;-63
2024/01/06 04:44:34;;;;;;;43.77;23.20;;;;;;;;;;759972;181;919179;-64
2024/01/06 04:47:00;;;;;;;46.83;27.67;;;;;;;;;;756423;181;840569;-65
2024/01/06 04:49:26;;;;;;;44.30;25.87;;;;;;;;;;762984;182;817149;-64
2024/01/06 04:51:52;;;;;;;43.13;27.43;;;;;;;;;;755852;181;919391;-63
2024/01/06 04:54:18;;;;;;;48.50;25.13;;;;;;;;;;751328;184;920020;-64
2024/01/06 04:56:43;;;;;;;47.00;24.67;;;;;;;;;;763485;181;907559;-64
2024/01/06 04:59:09;;;;;;;53.33;27.10;;;;;;;;;;755073;181;919191;-64
2024/01/06 05:01:35;;;;;;;53.70;25.50;;;;;;;;;;758117;181;918377;-65
2024/01/06 05:04:01;;;;;;;50.87;27.37;;;;;;;;;;759705;181;919123;-66
2024/01/06 05:06:27;;;;;;;48.80;26.67;;;;;;;;;;757031;181;918499;-64
2024/01/06 05:08:53;;;;;;;45.10;26.33;;;;;;;;;;756548;184;915581;-64
2024/01/06 05:11:18;;;;;;;56.80;31.37;;;;;;;;;;755673;181;919835;-65
2024/01/06 05:13:44;;;;;;;53.07;28.90;;;;;;;;;;751809;185;918227;-65
2024/01/06 05:16:10;;;;;;;57.83;30.03;;;;;;;;;;762876;182;918841;-65
2024/01/06 05:18:36;;;;;;;55.27;27.90;;;;;;;;;;753266;182;1022075;-67
2024/01/06 05:21:03;;;;;;;57.23;28.13;;;;;;;;;;760683;181;920489;-65
2024/01/06 05:23:28;;;;;;;59.07;30.37;;;;;;;;;;751665;181;918881;-65
2024/01/06 05:25:53;;;;;;;47.60;28.90;;;;;;;;;;762457;181;911588;-65
2024/01/06 05:28:19;;;;;;;52.00;26.97;;;;;;;;;;760136;181;914657;-65
2024/01/06 05:30:45;;;;;;;55.43;28.00;;;;;;;;;;755967;182;922815;-65
2024/01/06 05:33:12;;;;;;;71.07;30.00;;;;;;;;;;757966;181;915778;-65
2024/01/06 05:35:37;;;;;;;52.67;29.13;;;;;;;;;;759285;182;921600;-67
2024/01/06 05:38:03;;;;;;;51.80;27.60;;;;;;;;;;759549;182;921024;-67
2024/01/06 05:40:29;;;;;;;56.75;30.70;;;;;;;;;;762202;182;919579;-66
2024/01/06 05:42:56;;;;;;;47.97;28.33;;;;;;;;;;756234;181;919353;-64
2024/01/06 05:45:20;;;;;;;53.90;28.10;;;;;;;;;;756144;184;918072;-66
2024/01/06 05:47:46;;;;;;;62.87;30.70;;;;;;;;;;756239;181;918847;-64
2024/01/06 05:50:12;;;;;;;60.97;31.93;;;;;;;;;;756179;181;920684;-67
2024/01/06 05:52:38;;;;;;;63.53;32.43;;;;;;;;;;758374;182;912537;-66
2024/01/06 05:55:04;;;;;;;64.60;32.87;;;;;;;;;;758521;182;918825;-65
2024/01/06 05:57:30;;;;;;;54.53;32.27;;;;;;;;;;760806;181;925681;-66
2024/01/06 05:59:56;;;;;;;63.57;33.50;;;;;;;;;;764616;181;918446;-66
2024/01/06 06:02:22;;;;;;;73.90;32.53;;;;;;;;;;754765;183;917896;-66
2024/01/06 06:04:48;;;;;;;61.00;31.93;;;;;;;;;;755030;181;925596;-67
2024/01/06 06:07:14;;;;;;;51.73;28.63;;;;;;;;;;754572;183;919352;-66
2024/01/06 06:09:40;;;;;;;57.13;33.20;;;;;;;;;;745783;185;912127;-68
2024/01/06 06:12:05;;;;;;;65.40;35.07;;;;;;;;;;757619;181;919196;-67
2024/01/06 06:14:31;;;;;;;59.10;32.60;;;;;;;;;;755722;181;918983;-66
2024/01/06 06:16:57;;;;;;;56.80;29.97;;;;;;;;;;761335;182;918973;-66
2024/01/06 06:19:23;;;;;;;52.10;30.33;;;;;;;;;;741391;186;920434;-68
2024/01/06 06:21:49;;;;;;;72.57;34.17;;;;;;;;;;748739;185;876085;-64
2024/01/06 06:24:14;;;;;;;59.60;29.10;;;;;;;;;;755526;186;918298;-64
2024/01/06 06:26:40;;;;;;;60.23;33.17;;;;;;;;;;755797;181;902222;-66
2024/01/06 06:29:06;;;;;;;58.17;31.87;;;;;;;;;;753170;182;917336;-66
2024/01/06 06:31:32;;;;;;;58.00;29.87;;;;;;;;;;755411;184;901106;-64
2024/01/06 06:33:58;;;;;;;52.57;29.40;;;;;;;;;;756074;183;921192;-66
2024/01/06 06:36:24;;;;;;;56.90;31.93;;;;;;;;;;757184;181;918456;-67
2024/01/06 06:38:49;;;;;;;58.27;27.67;;;;;;;;;;752053;183;920457;-66
2024/01/06 06:41:16;;;;;;;55.57;32.47;;;;;;;;;;757137;182;855186;-68
2024/01/06 06:43:41;;;;;;;51.73;27.40;;;;;;;;;;743696;183;915589;-66
2024/01/06 06:46:07;;;;;;;53.37;27.60;;;;;;;;;;749481;185;916090;-65
2024/01/06 06:48:33;;;;;;;52.57;29.57;;;;;;;;;;762375;181;919866;-64
2024/01/06 06:50:59;;;;;;;57.67;29.73;;;;;;;;;;754547;181;916488;-66
2024/01/06 06:53:25;;;;;;;56.40;32.53;;;;;;;;;;752653;182;918786;-66
2024/01/06 06:55:50;;;;;;;71.97;35.87;;;;;;;;;;762696;181;720718;-64
2024/01/06 06:58:17;;;;;;;62.30;35.33;;;;;;;;;;757234;181;914338;-68
2024/01/06 07:00:42;;;;;;;57.07;31.73;;;;;;;;;;756119;181;908513;-65
2024/01/06 07:03:08;;;;;;;52.40;29.80;;;;;;;;;;754310;182;919745;-66
2024/01/06 07:05:34;;;;;;;48.93;27.57;;;;;;;;;;752885;182;858993;-64
2024/01/06 07:08:01;;;;;;;57.90;31.93;;;;;;;;;;752093;181;918945;-64
2024/01/06 07:10:26;;;;;;;59.20;29.73;;;;;;;;;;753468;180;922800;-67
2024/01/06 07:12:53;;;;;;;62.67;30.57;;;;;;;;;;762713;178;850712;-66
2024/01/06 07:15:18;;;;;;;56.35;30.52;;;;;;;;;;756967;183;922212;-66
2024/01/06 07:17:44;;;;;;;58.50;28.70;;;;;;;;;;753827;183;916369;-66
2024/01/06 07:20:10;;;;;;;69.50;38.17;;;;;;;;;;759181;183;919826;-63
2024/01/06 07:22:36;;;;;;;55.43;31.17;;;;;;;;;;745218;185;920950;-63
2024/01/06 07:25:02;;;;;;;51.40;30.87;;;;;;;;;;750127;184;918827;-66
2024/01/06 07:27:28;;;;;;;46.93;29.33;;;;;;;;;;751879;185;917235;-64
2024/01/06 07:29:55;;;;;;;64.10;32.53;;;;;;;;;;743805;186;716198;-64
2024/01/06 07:32:19;;;;;;;53.47;32.07;;;;;;;;;;766258;181;913350;-64
2024/01/06 07:34:45;;;;;;;60.70;30.40;;;;;;;;;;765840;181;918563;-66
2024/01/06 07:37:12;;;;;;;57.47;30.17;;;;;;;;;;767941;177;918502;-63
2024/01/06 07:39:38;;;;;;;62.97;35.00;;;;;;;;;;756385;182;916974;-64
2024/01/06 07:42:04;;;;;;;72.65;37.88;;;;;;;;;;752842;184;920092;-65
2024/01/06 07:44:30;;;;;;;68.30;39.10;;;;;;;;;;759309;183;820065;-67
2024/01/06 07:46:56;;;;;;;71.53;38.33;;;;;;;;;;763841;181;816709;-64
2024/01/06 07:49:22;;;;;;;70.53;37.53;;;;;;;;;;754466;184;923174;-67
2024/01/06 07:51:47;;;;;;;78.43;45.87;;;;;;;;;;766752;179;923234;-63
2024/01/06 07:54:13;;;;;;;125.77;59.40;;;;;;;;;;755645;183;912621;-63
2024/01/06 07:56:39;;;;;;;110.77;62.43;;;;;;;;;;758375;181;916471;-65
2024/01/06 07:59:05;;;;;;;106.18;57.78;;;;;;;;;;754831;183;818387;-67
2024/01/06 08:01:31;;;;;;;103.93;60.40;;;;;;;;;;764631;181;818500;-67
2024/01/06 08:03:57;;;;;;;79.83;45.13;;;;;;;;;;753709;183;885566;-64
2024/01/06 08:06:22;;;;;;;113.80;69.57;;;;;;;;;;753730;183;921155;-64
2024/01/06 08:08:48;;;;;;;64.90;40.90;;;;;;;;;;758197;184;918539;-65
2024/01/06 08:11:14;;;;;;;82.60;50.30;;;;;;;;;;752334;182;920076;-65
2024/01/06 08:13:41;;;;;;;72.23;37.67;;;;;;;;;;736078;189;919889;-63
2024/01/06 08:16:06;;;;;;;69.53;47.67;;;;;;;;;;759946;182;919444;-65
2024/01/06 08:18:32;;;;;;;71.20;43.30;;;;;;;;;;756876;181;912863;-65
2024/01/06 08:20:58;;;;;;;90.73;57.10;;;;;;;;;;756222;181;918837;-68
2024/01/06 08:23:24;;;;;;;105.50;63.83;;;;;;;;;;751275;182;919164;-68
2024/01/06 08:25:49;;;;;;;92.07;56.65;;;;;;;;;;740447;187;914614;-68
2024/01/06 08:28:16;;;;;;;105.67;59.40;;;;;;;;;;755135;183;918621;-66
2024/01/06 08:30:42;;;;;;;223.30;130.87;;;;;;;;;;741466;186;923354;-68
2024/01/06 08:33:07;;;;;;;107.27;66.17;;;;;;;;;;761689;181;918976;-65
2024/01/06 08:35:34;;;;;;;120.93;71.73;;;;;;;;;;753441;181;918176;-67
2024/01/06 08:38:00;;;;;;;77.20;46.30;;;;;;;;;;755101;181;927176;-64
2024/01/06 08:40:27;;;;;;;71.70;50.40;;;;;;;;;;760382;181;918602;-67
2024/01/06 08:42:51;;;;;;;66.20;39.63;;;;;;;;;;755710;181;912275;-65
2024/01/06 08:45:17;;;;;;;61.13;37.07;;;;;;;;;;756117;181;876447;-63
2024/01/06 08:47:43;;;;;;;81.57;48.77;;;;;;;;;;756110;182;821629;-63
2024/01/06 08:50:09;;;;;;;91.43;54.20;;;;;;;;;;755461;180;1021651;-64
2024/01/06 08:52:35;;;;;;;80.73;54.07;;;;;;;;;;750145;186;624580;-65
2024/01/06 08:55:01;;;;;;;143.07;84.20;;;;;;;;;;756672;181;918116;-65
2024/01/06 08:57:27;;;;;;;99.40;53.70;;;;;;;;;;758787;181;822197;-63
2024/01/06 08:59:52;;;;;;;120.00;58.27;;;;;;;;;;756872;182;915892;-63
2024/01/06 09:02:18;;;;;;;119.60;68.37;;;;;;;;;;761057;180;815887;-64
2024/01/06 09:04:44;;;;;;;124.60;65.53;;;;;;;;;;764804;181;910999;-63
2024/01/06 09:07:10;;;;;;;148.17;71.73;;;;;;;;;;749754;184;899257;-67
2024/01/06 09:09:36;;;;;;;236.37;103.03;;;;;;;;;;763032;180;618785;-67
2024/01/06 09:12:02;;;;;;;186.13;89.43;;;;;;;;;;760571;181;915975;-64
2024/01/06 09:14:27;;;;;;;168.47;76.07;;;;;;;;;;756270;181;919884;-65
2024/01/06 09:16:53;;;;;;;127.63;59.10;;;;;;;;;;758429;182;818251;-64
2024/01/06 09:19:19;;;;;;;145.10;70.20;;;;;;;;;;748982;184;1020813;-65
2024/01/06 09:21:45;;;;;;;115.40;51.03;;;;;;;;;;745328;186;816754;-64
2024/01/06 09:24:11;;;;;;;204.03;82.50;;;;;;;;;;746120;186;918569;-63
2024/01/06 09:26:37;;;;;;;154.97;60.67;;;;;;;;;;736324;186;817278;-66
2024/01/06 09:29:02;;;;;;;147.77;75.53;;;;;;;;;;761250;181;919418;-65
2024/01/06 09:31:28;;;;;;;122.93;59.33;;;;;;;;;;742910;186;903157;-65
2024/01/06 09:33:54;;;;;;;167.37;78.30;;;;;;;;;;739827;186;871739;-66
2024/01/06 09:36:20;;;;;;;140.60;69.63;;;;;;;;;;755901;182;1000422;-66
2024/01/06 09:38:46;;;;;;;117.17;55.20;;;;;;;;;;757423;182;915407;-63
2024/01/06 09:41:12;;;;;;;89.53;51.70;;;;;;;;;;759092;181;813832;-64
2024/01/06 09:43:38;;;;;;;78.68;43.05;;;;;;;;;;762563;181;822035;-63
2024/01/06 09:46:05;;;;;;;81.47;46.67;;;;;;;;;;759822;181;917974;-66
2024/01/06 09:48:31;;;;;;;129.63;70.40;;;;;;;;;;747719;185;918706;-67
2024/01/06 09:50:57;;;;;;;104.43;49.17;;;;;;;;;;745531;185;816296;-65
2024/01/06 09:53:23;;;;;;;73.47;42.20;;;;;;;;;;759052;182;659735;-66
2024/01/06 09:55:52;;;;;;;60.87;34.43;;;;;;;;;;754696;182;809527;-66
2024/01/06 09:58:15;;;;;;;77.97;39.60;;;;;;;;;;756340;181;716634;-63
2024/01/06 10:00:41;;;;;;;71.80;40.27;;;;;;;;;;760334;182;917449;-65
2024/01/06 10:03:07;;;;;;;90.50;50.43;;;;;;;;;;755179;181;920545;-63
2024/01/06 10:05:32;;;;;;;97.18;51.58;;;;;;;;;;755602;182;811855;-63
2024/01/06 10:07:59;;;;;;;508.45;280.87;;;;;;;;;;758510;181;907391;-63
2024/01/06 10:10:25;;;;;;;275.03;142.97;;;;;;;;;;736217;188;920073;-62
2024/01/06 10:12:51;;;;;;;304.57;177.10;;;;;;;;;;745056;186;918207;-65
2024/01/06 10:15:16;;;;;;;341.97;217.70;;;;;;;;;;739869;186;849687;-65
2024/01/06 10:17:42;;;;;;;128.07;79.63;;;;;;;;;;761233;182;634777;-63
2024/01/06 10:20:09;;;;;;;143.93;93.37;;;;;;;;;;759178;181;942148;-66
2024/01/06 10:22:34;;;;;;;97.83;60.30;;;;;;;;;;751048;182;886927;-65
2024/01/06 10:25:00;;;;;;;118.57;59.93;;;;;;;;;;759143;181;821277;-63
2024/01/06 10:27:26;;;;;;;69.97;41.47;;;;;;;;;;747531;185;781233;-65
2024/01/06 10:29:52;;;;;;;48.87;31.27;;;;;;;;;;759562;181;915656;-63
2024/01/06 10:32:18;;;;;;;48.60;30.50;;;;;;;;;;759772;182;919147;-66
2024/01/06 10:34:45;;;;;;;39.80;26.55;;;;;;;;;;753868;182;920568;-63
2024/01/06 10:37:09;;;;;;;40.37;26.10;;;;;;;;;;753416;182;921243;-65
2024/01/06 10:39:36;;;;;;;38.93;19.73;;;;;;;;;;753520;181;918278;-63
2024/01/06 10:42:01;;;;;;;36.83;20.50;;;;;;;;;;759357;181;821286;-62
2024/01/06 10:44:27;;;;;;;28.00;16.20;;;;;;;;;;752689;182;872101;-62
2024/01/06 10:46:53;;;;;;;29.30;20.57;;;;;;;;;;751081;181;918032;-66
2024/01/06 10:49:19;;;;;;;27.27;15.53;;;;;;;;;;757822;184;817224;-62
2024/01/06 10:51:44;;;;;;;25.70;14.23;;;;;;;;;;750489;182;918255;-63
2024/01/06 10:54:10;;;;;;;32.77;17.27;;;;;;;;;;759652;181;819504;-62
2024/01/06 10:56:36;;;;;;;22.07;14.40;;;;;;;;;;762078;178;913838;-65
2024/01/06 10:59:02;;;;;;;23.43;14.07;;;;;;;;;;757393;181;913735;-66
2024/01/06 11:01:28;;;;;;;27.73;15.70;;;;;;;;;;755630;181;916678;-62
2024/01/06 11:03:54;;;;;;;36.07;21.90;;;;;;;;;;756251;181;815258;-63
2024/01/06 11:06:19;;;;;;;51.23;28.03;;;;;;;;;;768617;178;816672;-62
2024/01/06 11:08:50;;;;;;;24.00;16.30;;;;;;;;;;748114;184;819937;-62
2024/01/06 11:11:17;;;;;;;22.40;15.07;;;;;;;;;;761479;181;871870;-62
2024/01/06 11:13:45;;;;;;;26.13;13.37;;;;;;;;;;757552;184;919794;-61
2024/01/06 11:16:09;;;;;;;27.43;15.30;;;;;;;;;;755821;182;813144;-62
2024/01/06 11:18:38;;;;;;;37.23;21.33;;;;;;;;;;752405;182;919016;-66
2024/01/06 11:21:09;;;;;;;28.13;16.13;;;;;;;;;;755790;182;916617;-66
2024/01/06 11:23:35;;;;;;;33.57;16.50;;;;;;;;;;758001;182;918941;-66
2024/01/06 11:26:01;;;;;;;29.70;15.13;;;;;;;;;;749858;184;919199;-66
2024/01/06 11:28:26;;;;;;;31.60;14.03;;;;;;;;;;750215;185;941770;-62
2024/01/06 11:30:54;;;;;;;27.30;12.70;;;;;;;;;;763654;181;910450;-62
2024/01/06 11:33:18;;;;;;;26.23;16.27;;;;;;;;;;747167;185;641794;-62
2024/01/06 11:35:49;;;;;;;30.02;18.77;;;;;;;;;;751221;183;856194;-66
2024/01/06 11:38:12;;;;;;;29.77;17.90;;;;;;;;;;749832;186;914500;-66
2024/01/06 11:40:36;;;;;;;24.43;11.57;;;;;;;;;;744254;186;818272;-62
2024/01/06 11:43:02;;;;;;;28.93;15.23;;;;;;;;;;752358;182;920260;-62
2024/01/06 11:45:27;;;;;;;28.50;16.13;;;;;;;;;;753142;181;916472;-65
2024/01/06 11:47:58;;;;;;;22.20;13.90;;;;;;;;;;758341;184;845316;-62
2024/01/06 11:50:23;;;;;;;30.97;14.27;;;;;;;;;;752431;182;922343;-62
2024/01/06 11:52:48;;;;;;;27.40;16.87;;;;;;;;;;758328;179;913778;-66
2024/01/06 11:55:14;;;;;;;22.37;14.40;;;;;;;;;;757952;183;816781;-67
2024/01/06 11:57:40;;;;;;;34.80;18.13;;;;;;;;;;746808;183;915997;-66
2024/01/06 12:00:06;;;;;;;20.53;13.30;;;;;;;;;;759756;181;812977;-64
2024/01/06 12:02:32;;;;;;;26.40;15.53;;;;;;;;;;750059;185;918823;-61
2024/01/06 12:04:58;;;;;;;36.60;17.53;;;;;;;;;;760562;181;918172;-61
2024/01/06 12:07:24;;;;;;;24.30;13.15;;;;;;;;;;756132;181;920267;-64
2024/01/06 12:09:50;;;;;;;30.93;15.80;;;;;;;;;;756883;181;927542;-64
2024/01/06 12:12:15;;;;;;;28.67;13.70;;;;;;;;;;758657;184;715739;-61
2024/01/06 12:14:42;;;;;;;23.37;14.10;;;;;;;;;;753857;182;922647;-61
2024/01/06 12:17:07;;;;;;;21.63;12.63;;;;;;;;;;755962;182;718145;-60
2024/01/06 12:19:33;;;;;;;35.00;20.97;;;;;;;;;;760604;182;919258;-60
2024/01/06 12:21:59;;;;;;;32.73;18.37;;;;;;;;;;749161;183;919171;-63
2024/01/06 12:24:25;;;;;;;29.92;20.77;;;;;;;;;;761940;181;825137;-61
2024/01/06 12:26:51;;;;;;;39.70;23.73;;;;;;;;;;746992;186;918111;-61
2024/01/06 12:29:16;;;;;;;27.10;18.60;;;;;;;;;;745703;186;917306;-65
2024/01/06 12:31:42;;;;;;;26.60;16.53;;;;;;;;;;764870;178;914976;-62
2024/01/06 12:34:08;;;;;;;21.92;13.80;;;;;;;;;;756817;181;917633;-62
2024/01/06 12:36:34;;;;;;;32.70;19.93;;;;;;;;;;769490;181;816458;-62
2024/01/06 12:39:01;;;;;;;38.30;19.20;;;;;;;;;;756348;182;933152;-64
2024/01/06 12:41:26;;;;;;;39.63;21.63;;;;;;;;;;754394;182;816619;-62
2024/01/06 12:43:51;;;;;;;27.90;14.87;;;;;;;;;;754483;185;918422;-65
2024/01/06 12:49:10;;;;;;;38.90;23.87;;;;;;;;;;712567;182;666961;-78
2024/01/06 12:51:36;;;;;;;48.10;23.13;;;;;;;;;;757941;184;674356;-79
2024/01/06 12:54:02;;;;;;;44.03;24.53;;;;;;;;;;756680;182;657953;-77
2024/01/06 12:56:28;;;;;;;43.17;25.17;;;;;;;;;;743979;183;633587;-77
2024/01/06 12:58:54;;;;;;;59.57;35.37;;;;;;;;;;745663;185;634770;-77
2024/01/06 13:01:20;;;;;;;49.88;30.48;;;;;;;;;;748628;185;655660;-79
2024/01/06 13:03:46;;;;;;;52.77;31.37;;;;;;;;;;739718;186;1382816;-79
2024/01/06 13:06:11;;;;;;;95.83;52.53;;;;;;;;;;745632;185;718019;-79
2024/01/06 13:08:37;;;;;;;64.33;39.50;;;;;;;;;;745193;185;636365;-77
2024/01/06 13:11:03;;;;;;;75.23;42.13;;;;;;;;;;747645;185;633421;-79
2024/01/06 13:13:31;;;;;;;94.07;48.83;;;;;;;;;;749702;186;625177;-78
2024/01/06 13:15:55;;;;;;;101.37;45.40;;;;;;;;;;746232;185;636172;-80
2024/01/06 13:18:21;;;;;;;66.63;34.73;;;;;;;;;;749269;185;648319;-79
2024/01/06 13:20:47;;;;;;;120.73;52.20;;;;;;;;;;752694;184;626361;-78
2024/01/06 13:23:12;;;;;;;180.70;81.13;;;;;;;;;;754137;184;742153;-79
2024/01/06 13:25:40;;;;;;;80.23;37.67;;;;;;;;;;753459;182;656337;-79
2024/01/06 13:28:06;;;;;;;96.07;49.37;;;;;;;;;;752458;183;637262;-78
2024/01/06 13:30:32;;;;;;;64.70;42.13;;;;;;;;;;752102;184;623758;-79
2024/01/06 13:32:58;;;;;;;54.37;26.77;;;;;;;;;;750934;184;774359;-77
2024/01/06 13:35:24;;;;;;;57.37;28.20;;;;;;;;;;744308;185;631333;-79
2024/01/06 13:37:51;;;;;;;78.37;39.53;;;;;;;;;;754176;182;706029;-80
2024/01/06 13:40:19;;;;;;;39.63;19.70;;;;;;;;;;745603;185;652024;-80
2024/01/06 13:42:41;;;;;;;61.07;38.10;;;;;;;;;;745875;185;634766;-78
2024/01/06 13:45:07;;;;;;;87.00;43.50;;;;;;;;;;751898;185;630940;-77
2024/01/06 13:47:33;;;;;;;73.43;42.37;;;;;;;;;;745753;186;631240;-78
2024/01/06 13:49:59;;;;;;;75.27;41.97;;;;;;;;;;753243;185;615018;-76
2024/01/06 13:52:25;;;;;;;64.30;36.03;;;;;;;;;;753155;182;760752;-78
2024/01/06 13:54:51;;;;;;;69.43;36.87;;;;;;;;;;744012;185;631249;-78